Iroquois, South Dakota
Current Conditions -  °F | °C
As of 2:55 AM on Thursday 27 Nov 2014 (Local Time) from KHON Reporting Station
Clear Clear  
Wind Chill: -5°   Ceiling: Unl
Heat Index: -5°   Visibility: 10mi
Dew Point: -10°   Wind: 3mph
Humidity: 80%   Direction: 310°NW
Pressure: 30.53"   Gusts: NA
Location:  44.37°N, 97.85°W
Report Text: KHON 270855Z AUTO 31003KT 10SM CLR M21/M23 A3053 RMK AO2 SLP373 T12061233 52006
Loading
Personal Weather Stations






























Interactive Weather Map New forecast layout! Learn more

10-Day Weather Forecast

Advertisements
Track Severe Weather on mobile